Terminal Aerodrome Forecast
Issued by NWS

Home | Current Version | Previous Version | Text Only | Print | Product List | Glossary On
Versions: 1 2 3 4 5 6 7 8 9 10 11 12 13 14 15 16 17 18 19
000
FTUS43 KSGF 270500
TAFBBG
TAF
KBBG 270520Z 2706/2806 VRB03KT P6SM OVC100
     FM271000 VRB04KT P6SM OVC040
     FM271300 01005KT P6SM OVC025
      TEMPO 2713/2716 -RASN OVC015
     FM271700 01008KT P6SM BKN050
     FM271800 34008G16KT P6SM SCT050 OVC250=

USA.gov is the U.S. government's official web portal to all federal, state and local government web resources and services.